7A0 weather

Greensboro Municipal Airport
Greensboro, Alabama, United States

Public forecast

Using degrees Fahrenheit for public forecast. Weather courtesy of forecast.io.

METAR (pilot weather report)

Closest report is Vaiden Field, 17.3 nm (32.0 km) SE. Retrieved UTC (0 seconds ago):

TAF (pilot weather forecast)

Closest forecast is Tuscaloosa Regional Airport, 32.5 nm (60.1 km) N. Retrieved 2019/08/19 18:33 UTC (4 hours ago):

TAF COR KTCL 191730Z 1918/2018 VRB04KT P6SM VCTS SCT070CB SCT150 TEMPO 1920/1922 VRB10G20KT 6SM TSRA BR BKN050CB FM200000 VRB03KT P6SM SCT050 FM200200 00000KT P6SM SCT150